sensor_id;sensor_type;location;lat;lon;timestamp;temperature;humidity
9941;DHT22;5009;50.656;7.188;2022-10-15T00:02:11;15.20;99.90
9941;DHT22;5009;50.656;7.188;2022-10-15T00:04:37;15.20;99.90
9941;DHT22;5009;50.656;7.188;2022-10-15T00:07:02;15.20;99.90
9941;DHT22;5009;50.656;7.188;2022-10-15T00:09:28;15.20;99.90
9941;DHT22;5009;50.656;7.188;2022-10-15T00:11:54;15.20;99.90
9941;DHT22;5009;50.656;7.188;2022-10-15T00:14:19;15.10;99.90
9941;DHT22;5009;50.656;7.188;2022-10-15T00:16:45;15.10;99.90
9941;DHT22;5009;50.656;7.188;2022-10-15T00:19:11;15.10;99.90
9941;DHT22;5009;50.656;7.188;2022-10-15T00:21:37;15.00;99.90
9941;DHT22;5009;50.656;7.188;2022-10-15T00:24:03;15.10;99.90
9941;DHT22;5009;50.656;7.188;2022-10-15T00:26:29;15.00;99.90
9941;DHT22;5009;50.656;7.188;2022-10-15T00:28:58;15.00;99.90
9941;DHT22;5009;50.656;7.188;2022-10-15T00:31:24;15.00;99.90
9941;DHT22;5009;50.656;7.188;2022-10-15T00:33:52;15.00;99.90
9941;DHT22;5009;50.656;7.188;2022-10-15T00:36:21;15.00;99.90
9941;DHT22;5009;50.656;7.188;2022-10-15T00:38:47;15.00;99.90
9941;DHT22;5009;50.656;7.188;2022-10-15T00:41:16;15.10;99.90
9941;DHT22;5009;50.656;7.188;2022-10-15T00:43:46;15.00;99.90
9941;DHT22;5009;50.656;7.188;2022-10-15T00:46:37;14.90;99.90
9941;DHT22;5009;50.656;7.188;2022-10-15T00:52:00;14.90;99.90
9941;DHT22;5009;50.656;7.188;2022-10-15T00:54:30;14.80;99.90
9941;DHT22;5009;50.656;7.188;2022-10-15T00:56:56;14.80;99.90
9941;DHT22;5009;50.656;7.188;2022-10-15T00:59:23;14.80;99.90
9941;DHT22;5009;50.656;7.188;2022-10-15T01:01:50;14.80;99.90
9941;DHT22;5009;50.656;7.188;2022-10-15T01:04:16;14.80;99.90
9941;DHT22;5009;50.656;7.188;2022-10-15T01:06:43;14.80;99.90
9941;DHT22;5009;50.656;7.188;2022-10-15T01:09:09;14.80;99.90
9941;DHT22;5009;50.656;7.188;2022-10-15T01:11:50;14.80;99.90
9941;DHT22;5009;50.656;7.188;2022-10-15T01:17:10;14.80;99.90
9941;DHT22;5009;50.656;7.188;2022-10-15T01:22:40;14.90;99.90
9941;DHT22;5009;50.656;7.188;2022-10-15T01:25:44;14.90;99.90
9941;DHT22;5009;50.656;7.188;2022-10-15T01:31:10;14.80;99.90
9941;DHT22;5009;50.656;7.188;2022-10-15T01:34:01;14.80;99.90
9941;DHT22;5009;50.656;7.188;2022-10-15T01:40:02;14.80;99.90
9941;DHT22;5009;50.656;7.188;2022-10-15T01:44:56;14.80;99.90
9941;DHT22;5009;50.656;7.188;2022-10-15T01:47:28;14.80;99.90
9941;DHT22;5009;50.656;7.188;2022-10-15T01:49:56;14.90;99.90
9941;DHT22;5009;50.656;7.188;2022-10-15T01:52:26;14.90;99.90
9941;DHT22;5009;50.656;7.188;2022-10-15T01:54:54;14.90;99.90
9941;DHT22;5009;50.656;7.188;2022-10-15T01:57:22;14.90;99.90
9941;DHT22;5009;50.656;7.188;2022-10-15T01:59:49;14.80;99.90
9941;DHT22;5009;50.656;7.188;2022-10-15T02:02:15;14.80;99.90
9941;DHT22;5009;50.656;7.188;2022-10-15T02:04:41;14.90;99.90
9941;DHT22;5009;50.656;7.188;2022-10-15T02:07:40;14.80;99.90
9941;DHT22;5009;50.656;7.188;2022-10-15T02:10:28;14.90;99.90
9941;DHT22;5009;50.656;7.188;2022-10-15T02:15:51;14.80;99.90
9941;DHT22;5009;50.656;7.188;2022-10-15T02:18:37;14.80;99.90
9941;DHT22;5009;50.656;7.188;2022-10-15T02:21:28;14.70;99.90
9941;DHT22;5009;50.656;7.188;2022-10-15T02:24:24;14.70;99.90
9941;DHT22;5009;50.656;7.188;2022-10-15T02:26:52;14.80;99.90
9941;DHT22;5009;50.656;7.188;2022-10-15T02:29:22;14.70;99.90
9941;DHT22;5009;50.656;7.188;2022-10-15T02:31:49;14.70;99.90
9941;DHT22;5009;50.656;7.188;2022-10-15T02:34:18;14.70;99.90
9941;DHT22;5009;50.656;7.188;2022-10-15T02:36:45;14.70;99.90
9941;DHT22;5009;50.656;7.188;2022-10-15T02:39:16;14.70;99.90
9941;DHT22;5009;50.656;7.188;2022-10-15T02:41:43;14.70;99.90
9941;DHT22;5009;50.656;7.188;2022-10-15T02:44:09;14.80;99.90
9941;DHT22;5009;50.656;7.188;2022-10-15T02:46:35;14.80;99.90
9941;DHT22;5009;50.656;7.188;2022-10-15T02:49:00;14.80;99.90
9941;DHT22;5009;50.656;7.188;2022-10-15T02:51:26;14.80;99.90
9941;DHT22;5009;50.656;7.188;2022-10-15T02:53:51;14.80;99.90
9941;DHT22;5009;50.656;7.188;2022-10-15T02:56:17;14.80;99.90
9941;DHT22;5009;50.656;7.188;2022-10-15T02:58:42;14.80;99.90
9941;DHT22;5009;50.656;7.188;2022-10-15T03:01:08;14.80;99.90
9941;DHT22;5009;50.656;7.188;2022-10-15T03:03:33;14.80;99.90
9941;DHT22;5009;50.656;7.188;2022-10-15T03:05:59;14.80;99.90
9941;DHT22;5009;50.656;7.188;2022-10-15T03:08:24;14.80;99.90
9941;DHT22;5009;50.656;7.188;2022-10-15T03:10:50;14.80;99.90
9941;DHT22;5009;50.656;7.188;2022-10-15T03:13:15;14.90;99.90
9941;DHT22;5009;50.656;7.188;2022-10-15T03:15:41;14.80;99.90
9941;DHT22;5009;50.656;7.188;2022-10-15T03:18:07;14.90;99.90
9941;DHT22;5009;50.656;7.188;2022-10-15T03:20:33;14.70;99.90
9941;DHT22;5009;50.656;7.188;2022-10-15T03:22:58;14.70;99.90
9941;DHT22;5009;50.656;7.188;2022-10-15T03:25:24;14.70;99.90
9941;DHT22;5009;50.656;7.188;2022-10-15T03:27:49;14.70;99.90
9941;DHT22;5009;50.656;7.188;2022-10-15T03:30:17;14.70;99.90
9941;DHT22;5009;50.656;7.188;2022-10-15T03:32:43;14.70;99.90
9941;DHT22;5009;50.656;7.188;2022-10-15T03:35:08;14.70;99.90
9941;DHT22;5009;50.656;7.188;2022-10-15T03:37:34;14.70;99.90
9941;DHT22;5009;50.656;7.188;2022-10-15T03:39:59;14.70;99.90
9941;DHT22;5009;50.656;7.188;2022-10-15T03:42:25;14.70;99.90
9941;DHT22;5009;50.656;7.188;2022-10-15T03:44:50;14.70;99.90
9941;DHT22;5009;50.656;7.188;2022-10-15T03:47:16;14.70;99.90
9941;DHT22;5009;50.656;7.188;2022-10-15T03:49:41;14.70;99.90
9941;DHT22;5009;50.656;7.188;2022-10-15T03:52:07;14.70;99.90
9941;DHT22;5009;50.656;7.188;2022-10-15T03:54:33;14.80;99.90
9941;DHT22;5009;50.656;7.188;2022-10-15T03:56:58;14.70;99.90
9941;DHT22;5009;50.656;7.188;2022-10-15T03:59:24;14.70;99.90
9941;DHT22;5009;50.656;7.188;2022-10-15T04:01:49;14.70;99.90
9941;DHT22;5009;50.656;7.188;2022-10-15T04:04:15;14.70;99.90
9941;DHT22;5009;50.656;7.188;2022-10-15T04:06:40;14.70;99.90
9941;DHT22;5009;50.656;7.188;2022-10-15T04:09:06;14.70;99.90
9941;DHT22;5009;50.656;7.188;2022-10-15T04:11:31;14.70;99.90
9941;DHT22;5009;50.656;7.188;2022-10-15T04:13:57;14.70;99.90
9941;DHT22;5009;50.656;7.188;2022-10-15T04:16:22;14.70;99.90
9941;DHT22;5009;50.656;7.188;2022-10-15T04:18:48;14.70;99.90
9941;DHT22;5009;50.656;7.188;2022-10-15T04:21:13;14.70;99.90
9941;DHT22;5009;50.656;7.188;2022-10-15T04:23:39;14.70;99.90
9941;DHT22;5009;50.656;7.188;2022-10-15T04:26:04;14.60;99.90
9941;DHT22;5009;50.656;7.188;2022-10-15T04:28:31;14.60;99.90
9941;DHT22;5009;50.656;7.188;2022-10-15T04:30:58;14.60;99.90
9941;DHT22;5009;50.656;7.188;2022-10-15T04:33:24;14.60;99.90
9941;DHT22;5009;50.656;7.188;2022-10-15T04:36:12;14.60;99.90
9941;DHT22;5009;50.656;7.188;2022-10-15T04:38:37;14.60;99.90
9941;DHT22;5009;50.656;7.188;2022-10-15T04:41:06;14.50;99.90
9941;DHT22;5009;50.656;7.188;2022-10-15T04:43:32;14.50;99.90
9941;DHT22;5009;50.656;7.188;2022-10-15T04:45:59;14.50;99.90
9941;DHT22;5009;50.656;7.188;2022-10-15T04:48:27;14.50;99.90
9941;DHT22;5009;50.656;7.188;2022-10-15T04:50:53;14.60;99.90
9941;DHT22;5009;50.656;7.188;2022-10-15T04:53:20;14.60;99.90
9941;DHT22;5009;50.656;7.188;2022-10-15T04:55:46;14.60;99.90
9941;DHT22;5009;50.656;7.188;2022-10-15T04:58:12;14.60;99.90
9941;DHT22;5009;50.656;7.188;2022-10-15T05:00:38;14.60;99.90
9941;DHT22;5009;50.656;7.188;2022-10-15T05:03:05;14.60;99.90
9941;DHT22;5009;50.656;7.188;2022-10-15T05:05:31;14.60;99.90
9941;DHT22;5009;50.656;7.188;2022-10-15T05:08:00;14.60;99.90
9941;DHT22;5009;50.656;7.188;2022-10-15T05:10:26;14.60;99.90
9941;DHT22;5009;50.656;7.188;2022-10-15T05:12:52;14.60;99.90
9941;DHT22;5009;50.656;7.188;2022-10-15T05:15:17;14.50;99.90
9941;DHT22;5009;50.656;7.188;2022-10-15T05:17:43;14.50;99.90
9941;DHT22;5009;50.656;7.188;2022-10-15T05:20:09;14.50;99.90
9941;DHT22;5009;50.656;7.188;2022-10-15T05:22:34;14.50;99.90
9941;DHT22;5009;50.656;7.188;2022-10-15T05:25:00;14.60;99.90
9941;DHT22;5009;50.656;7.188;2022-10-15T05:27:26;14.60;99.90
9941;DHT22;5009;50.656;7.188;2022-10-15T05:29:51;14.50;99.90
9941;DHT22;5009;50.656;7.188;2022-10-15T05:32:17;14.50;99.90
9941;DHT22;5009;50.656;7.188;2022-10-15T05:34:42;14.50;99.90
9941;DHT22;5009;50.656;7.188;2022-10-15T05:37:08;14.50;99.90
9941;DHT22;5009;50.656;7.188;2022-10-15T05:39:33;14.40;99.90
9941;DHT22;5009;50.656;7.188;2022-10-15T05:41:59;14.40;99.90
9941;DHT22;5009;50.656;7.188;2022-10-15T05:44:24;14.40;99.90
9941;DHT22;5009;50.656;7.188;2022-10-15T05:46:50;14.40;99.90
9941;DHT22;5009;50.656;7.188;2022-10-15T05:49:15;14.30;99.90
9941;DHT22;5009;50.656;7.188;2022-10-15T05:51:43;14.30;99.90
9941;DHT22;5009;50.656;7.188;2022-10-15T05:54:09;14.30;99.90
9941;DHT22;5009;50.656;7.188;2022-10-15T05:56:34;14.30;99.90
9941;DHT22;5009;50.656;7.188;2022-10-15T05:59:00;14.20;99.90
9941;DHT22;5009;50.656;7.188;2022-10-15T06:01:25;14.30;99.90
9941;DHT22;5009;50.656;7.188;2022-10-15T06:03:51;14.20;99.90
9941;DHT22;5009;50.656;7.188;2022-10-15T06:06:22;14.20;99.90
9941;DHT22;5009;50.656;7.188;2022-10-15T06:08:48;14.20;99.90
9941;DHT22;5009;50.656;7.188;2022-10-15T06:11:14;14.20;99.90
9941;DHT22;5009;50.656;7.188;2022-10-15T06:13:41;14.20;99.90
9941;DHT22;5009;50.656;7.188;2022-10-15T06:16:08;14.20;99.90
9941;DHT22;5009;50.656;7.188;2022-10-15T06:18:34;14.20;99.90
9941;DHT22;5009;50.656;7.188;2022-10-15T06:21:00;14.30;99.90
9941;DHT22;5009;50.656;7.188;2022-10-15T06:23:26;14.30;99.90
9941;DHT22;5009;50.656;7.188;2022-10-15T06:25:51;14.30;99.90
9941;DHT22;5009;50.656;7.188;2022-10-15T06:28:17;14.30;99.90
9941;DHT22;5009;50.656;7.188;2022-10-15T06:30:43;14.30;99.90
9941;DHT22;5009;50.656;7.188;2022-10-15T06:33:09;14.30;99.90
9941;DHT22;5009;50.656;7.188;2022-10-15T06:35:35;14.20;99.90
9941;DHT22;5009;50.656;7.188;2022-10-15T06:38:01;14.20;99.90
9941;DHT22;5009;50.656;7.188;2022-10-15T06:40:27;14.20;99.90
9941;DHT22;5009;50.656;7.188;2022-10-15T06:42:53;14.20;99.90
9941;DHT22;5009;50.656;7.188;2022-10-15T06:45:19;14.20;99.90
9941;DHT22;5009;50.656;7.188;2022-10-15T06:47:44;14.20;99.90
9941;DHT22;5009;50.656;7.188;2022-10-15T06:50:10;14.30;99.90
9941;DHT22;5009;50.656;7.188;2022-10-15T06:52:36;14.40;99.90
9941;DHT22;5009;50.656;7.188;2022-10-15T06:55:02;14.50;99.90
9941;DHT22;5009;50.656;7.188;2022-10-15T06:57:28;14.70;99.90
9941;DHT22;5009;50.656;7.188;2022-10-15T06:59:53;14.80;99.90
9941;DHT22;5009;50.656;7.188;2022-10-15T07:02:19;15.00;99.90
9941;DHT22;5009;50.656;7.188;2022-10-15T07:04:45;15.10;99.90
9941;DHT22;5009;50.656;7.188;2022-10-15T07:07:11;15.20;99.90
9941;DHT22;5009;50.656;7.188;2022-10-15T07:09:37;16.20;99.90
9941;DHT22;5009;50.656;7.188;2022-10-15T07:12:03;16.90;99.90
9941;DHT22;5009;50.656;7.188;2022-10-15T07:14:29;17.10;99.90
9941;DHT22;5009;50.656;7.188;2022-10-15T07:16:54;17.00;99.90
9941;DHT22;5009;50.656;7.188;2022-10-15T07:19:20;16.90;99.90
9941;DHT22;5009;50.656;7.188;2022-10-15T07:21:45;16.60;99.90
9941;DHT22;5009;50.656;7.188;2022-10-15T07:24:11;16.30;99.90
9941;DHT22;5009;50.656;7.188;2022-10-15T07:26:36;16.10;99.90
9941;DHT22;5009;50.656;7.188;2022-10-15T07:29:02;15.90;99.90
9941;DHT22;5009;50.656;7.188;2022-10-15T07:31:28;15.90;99.90
9941;DHT22;5009;50.656;7.188;2022-10-15T07:33:54;15.90;99.90
9941;DHT22;5009;50.656;7.188;2022-10-15T07:36:20;15.90;99.90
9941;DHT22;5009;50.656;7.188;2022-10-15T07:38:45;16.00;99.90
9941;DHT22;5009;50.656;7.188;2022-10-15T07:41:11;16.10;99.90
9941;DHT22;5009;50.656;7.188;2022-10-15T07:43:37;16.10;99.90
9941;DHT22;5009;50.656;7.188;2022-10-15T07:46:03;16.10;99.90
9941;DHT22;5009;50.656;7.188;2022-10-15T07:48:30;16.10;99.90
9941;DHT22;5009;50.656;7.188;2022-10-15T07:50:56;16.10;99.90
9941;DHT22;5009;50.656;7.188;2022-10-15T07:53:23;16.00;99.90
9941;DHT22;5009;50.656;7.188;2022-10-15T07:55:49;15.90;99.90
9941;DHT22;5009;50.656;7.188;2022-10-15T07:58:15;15.70;99.90
9941;DHT22;5009;50.656;7.188;2022-10-15T08:00:40;15.60;99.90
9941;DHT22;5009;50.656;7.188;2022-10-15T08:03:06;15.60;99.90
9941;DHT22;5009;50.656;7.188;2022-10-15T08:05:32;15.60;99.90
9941;DHT22;5009;50.656;7.188;2022-10-15T08:07:58;15.50;99.90
9941;DHT22;5009;50.656;7.188;2022-10-15T08:10:23;15.60;99.90
9941;DHT22;5009;50.656;7.188;2022-10-15T08:12:49;15.60;99.90
9941;DHT22;5009;50.656;7.188;2022-10-15T08:15:14;15.70;99.90
9941;DHT22;5009;50.656;7.188;2022-10-15T08:17:40;15.80;99.90
9941;DHT22;5009;50.656;7.188;2022-10-15T08:20:06;15.90;99.90
9941;DHT22;5009;50.656;7.188;2022-10-15T08:22:32;15.90;99.90
9941;DHT22;5009;50.656;7.188;2022-10-15T08:24:58;16.00;99.90
9941;DHT22;5009;50.656;7.188;2022-10-15T08:27:24;16.10;99.90
9941;DHT22;5009;50.656;7.188;2022-10-15T08:29:50;16.20;99.90
9941;DHT22;5009;50.656;7.188;2022-10-15T08:32:15;16.30;99.90
9941;DHT22;5009;50.656;7.188;2022-10-15T08:34:41;16.40;99.90
9941;DHT22;5009;50.656;7.188;2022-10-15T08:37:06;16.40;99.90
9941;DHT22;5009;50.656;7.188;2022-10-15T08:39:32;16.30;99.90
9941;DHT22;5009;50.656;7.188;2022-10-15T08:42:04;16.30;99.90
9941;DHT22;5009;50.656;7.188;2022-10-15T08:44:54;16.30;99.90
9941;DHT22;5009;50.656;7.188;2022-10-15T08:49:56;16.40;99.90
9941;DHT22;5009;50.656;7.188;2022-10-15T08:52:39;16.60;99.90
9941;DHT22;5009;50.656;7.188;2022-10-15T08:55:10;16.70;99.90
9941;DHT22;5009;50.656;7.188;2022-10-15T08:57:45;16.80;99.90
9941;DHT22;5009;50.656;7.188;2022-10-15T09:00:21;16.80;99.90
9941;DHT22;5009;50.656;7.188;2022-10-15T09:03:04;17.00;99.90
9941;DHT22;5009;50.656;7.188;2022-10-15T09:11:45;17.50;99.90
9941;DHT22;5009;50.656;7.188;2022-10-15T09:13:51;17.60;99.90
9941;DHT22;5009;50.656;7.188;2022-10-15T09:16:20;17.70;99.90
9941;DHT22;5009;50.656;7.188;2022-10-15T09:18:49;17.70;99.90
9941;DHT22;5009;50.656;7.188;2022-10-15T09:21:17;17.50;99.90
9941;DHT22;5009;50.656;7.188;2022-10-15T09:23:43;17.40;99.90
9941;DHT22;5009;50.656;7.188;2022-10-15T09:26:21;17.60;99.90
9941;DHT22;5009;50.656;7.188;2022-10-15T09:31:27;17.70;99.90
9941;DHT22;5009;50.656;7.188;2022-10-15T09:33:59;17.80;99.90
9941;DHT22;5009;50.656;7.188;2022-10-15T09:36:39;17.90;99.90
9941;DHT22;5009;50.656;7.188;2022-10-15T09:44:52;17.90;99.90
9941;DHT22;5009;50.656;7.188;2022-10-15T09:47:25;18.10;99.90
9941;DHT22;5009;50.656;7.188;2022-10-15T09:49:51;18.20;99.90
9941;DHT22;5009;50.656;7.188;2022-10-15T09:55:02;18.30;99.90
9941;DHT22;5009;50.656;7.188;2022-10-15T09:57:32;18.30;99.90
9941;DHT22;5009;50.656;7.188;2022-10-15T10:00:00;18.30;99.90
9941;DHT22;5009;50.656;7.188;2022-10-15T10:02:27;18.30;99.90
9941;DHT22;5009;50.656;7.188;2022-10-15T10:04:53;18.30;99.90
9941;DHT22;5009;50.656;7.188;2022-10-15T10:07:34;18.20;99.90
9941;DHT22;5009;50.656;7.188;2022-10-15T10:10:20;18.10;99.90
9941;DHT22;5009;50.656;7.188;2022-10-15T10:12:47;18.00;99.90
9941;DHT22;5009;50.656;7.188;2022-10-15T10:15:35;18.10;99.90
9941;DHT22;5009;50.656;7.188;2022-10-15T10:18:03;18.10;99.90
9941;DHT22;5009;50.656;7.188;2022-10-15T10:20:33;18.20;99.90
9941;DHT22;5009;50.656;7.188;2022-10-15T10:23:19;18.30;99.90
9941;DHT22;5009;50.656;7.188;2022-10-15T10:25:45;18.30;99.90
9941;DHT22;5009;50.656;7.188;2022-10-15T10:33:41;18.50;99.90
9941;DHT22;5009;50.656;7.188;2022-10-15T10:36:18;18.60;99.90
9941;DHT22;5009;50.656;7.188;2022-10-15T10:38:55;18.80;99.90
9941;DHT22;5009;50.656;7.188;2022-10-15T10:41:22;18.80;99.90
9941;DHT22;5009;50.656;7.188;2022-10-15T10:43:54;19.00;99.90
9941;DHT22;5009;50.656;7.188;2022-10-15T10:46:21;19.20;99.90
9941;DHT22;5009;50.656;7.188;2022-10-15T10:48:52;19.20;99.90
9941;DHT22;5009;50.656;7.188;2022-10-15T10:51:25;19.30;99.90
9941;DHT22;5009;50.656;7.188;2022-10-15T10:53:56;19.40;99.90
9941;DHT22;5009;50.656;7.188;2022-10-15T10:56:24;19.50;99.90
9941;DHT22;5009;50.656;7.188;2022-10-15T10:58:58;19.60;99.90
9941;DHT22;5009;50.656;7.188;2022-10-15T11:01:24;19.60;99.90
9941;DHT22;5009;50.656;7.188;2022-10-15T11:03:50;19.70;99.90
9941;DHT22;5009;50.656;7.188;2022-10-15T11:06:46;19.80;99.90
9941;DHT22;5009;50.656;7.188;2022-10-15T11:09:55;19.90;99.90
9941;DHT22;5009;50.656;7.188;2022-10-15T11:12:37;20.10;99.90
9941;DHT22;5009;50.656;7.188;2022-10-15T11:31:54;20.50;99.90
9941;DHT22;5009;50.656;7.188;2022-10-15T11:35:02;20.40;99.90
9941;DHT22;5009;50.656;7.188;2022-10-15T11:37:47;20.20;99.90
9941;DHT22;5009;50.656;7.188;2022-10-15T11:51:58;20.40;99.90
9941;DHT22;5009;50.656;7.188;2022-10-15T11:54:38;20.20;99.90
9941;DHT22;5009;50.656;7.188;2022-10-15T11:57:08;20.10;99.90
9941;DHT22;5009;50.656;7.188;2022-10-15T12:02:35;20.10;99.90
9941;DHT22;5009;50.656;7.188;2022-10-15T12:05:30;20.00;99.90
9941;DHT22;5009;50.656;7.188;2022-10-15T12:07:52;20.00;99.90
9941;DHT22;5009;50.656;7.188;2022-10-15T12:13:05;20.10;99.90
9941;DHT22;5009;50.656;7.188;2022-10-15T12:18:25;20.10;99.90
9941;DHT22;5009;50.656;7.188;2022-10-15T12:20:52;20.10;99.90
9941;DHT22;5009;50.656;7.188;2022-10-15T12:23:39;20.10;99.90
9941;DHT22;5009;50.656;7.188;2022-10-15T12:26:30;20.20;99.90
9941;DHT22;5009;50.656;7.188;2022-10-15T12:29:05;20.30;99.90
9941;DHT22;5009;50.656;7.188;2022-10-15T12:31:53;20.30;99.90
9941;DHT22;5009;50.656;7.188;2022-10-15T12:34:38;20.50;99.90
9941;DHT22;5009;50.656;7.188;2022-10-15T12:37:14;20.60;99.90
9941;DHT22;5009;50.656;7.188;2022-10-15T12:39:42;20.60;99.90
9941;DHT22;5009;50.656;7.188;2022-10-15T12:42:28;20.60;99.90
9941;DHT22;5009;50.656;7.188;2022-10-15T12:44:57;20.70;99.90
9941;DHT22;5009;50.656;7.188;2022-10-15T12:50:40;20.90;99.90
9941;DHT22;5009;50.656;7.188;2022-10-15T12:56:23;21.00;99.90
9941;DHT22;5009;50.656;7.188;2022-10-15T12:58:55;21.10;99.90
9941;DHT22;5009;50.656;7.188;2022-10-15T13:08:54;21.30;99.90
9941;DHT22;5009;50.656;7.188;2022-10-15T13:11:31;21.30;99.90
9941;DHT22;5009;50.656;7.188;2022-10-15T13:16:36;21.50;99.90
9941;DHT22;5009;50.656;7.188;2022-10-15T13:19:03;21.70;99.90
9941;DHT22;5009;50.656;7.188;2022-10-15T13:21:56;21.70;99.90
9941;DHT22;5009;50.656;7.188;2022-10-15T13:24:25;21.70;99.90
9941;DHT22;5009;50.656;7.188;2022-10-15T13:26:52;21.70;99.90
9941;DHT22;5009;50.656;7.188;2022-10-15T13:29:21;21.70;99.90
9941;DHT22;5009;50.656;7.188;2022-10-15T13:31:47;21.60;99.90
9941;DHT22;5009;50.656;7.188;2022-10-15T13:34:29;21.60;99.90
9941;DHT22;5009;50.656;7.188;2022-10-15T13:36:56;21.60;99.90
9941;DHT22;5009;50.656;7.188;2022-10-15T13:39:35;21.70;99.90
9941;DHT22;5009;50.656;7.188;2022-10-15T13:44:34;21.70;99.90
9941;DHT22;5009;50.656;7.188;2022-10-15T13:47:00;21.80;99.90
9941;DHT22;5009;50.656;7.188;2022-10-15T13:49:26;21.70;99.90
9941;DHT22;5009;50.656;7.188;2022-10-15T13:51:52;21.70;99.90
9941;DHT22;5009;50.656;7.188;2022-10-15T13:54:29;21.80;99.90
9941;DHT22;5009;50.656;7.188;2022-10-15T13:56:59;21.70;99.90
9941;DHT22;5009;50.656;7.188;2022-10-15T13:59:28;21.70;99.90
9941;DHT22;5009;50.656;7.188;2022-10-15T14:01:57;21.70;99.90
9941;DHT22;5009;50.656;7.188;2022-10-15T14:04:28;21.70;99.90
9941;DHT22;5009;50.656;7.188;2022-10-15T14:07:03;21.60;99.90
9941;DHT22;5009;50.656;7.188;2022-10-15T14:09:32;21.60;99.90
9941;DHT22;5009;50.656;7.188;2022-10-15T14:11:58;21.60;99.90
9941;DHT22;5009;50.656;7.188;2022-10-15T14:14:42;21.60;99.90
9941;DHT22;5009;50.656;7.188;2022-10-15T14:19:46;21.60;99.90
9941;DHT22;5009;50.656;7.188;2022-10-15T14:22:20;21.50;99.90
9941;DHT22;5009;50.656;7.188;2022-10-15T14:24:50;21.40;99.90
9941;DHT22;5009;50.656;7.188;2022-10-15T14:27:26;21.40;99.90
9941;DHT22;5009;50.656;7.188;2022-10-15T14:29:58;21.50;99.90
9941;DHT22;5009;50.656;7.188;2022-10-15T14:32:26;21.40;99.90
9941;DHT22;5009;50.656;7.188;2022-10-15T14:34:54;21.40;99.90
9941;DHT22;5009;50.656;7.188;2022-10-15T14:37:46;21.40;99.90
9941;DHT22;5009;50.656;7.188;2022-10-15T14:40:15;21.40;99.90
9941;DHT22;5009;50.656;7.188;2022-10-15T14:42:44;21.40;99.90
9941;DHT22;5009;50.656;7.188;2022-10-15T14:48:19;21.30;99.90
9941;DHT22;5009;50.656;7.188;2022-10-15T14:50:47;21.20;99.90
9941;DHT22;5009;50.656;7.188;2022-10-15T14:53:23;21.20;99.90
9941;DHT22;5009;50.656;7.188;2022-10-15T14:55:52;21.10;99.90
9941;DHT22;5009;50.656;7.188;2022-10-15T14:58:21;21.10;99.90
9941;DHT22;5009;50.656;7.188;2022-10-15T15:00:57;21.10;99.90
9941;DHT22;5009;50.656;7.188;2022-10-15T15:03:37;21.10;99.90
9941;DHT22;5009;50.656;7.188;2022-10-15T15:06:02;21.00;99.90
9941;DHT22;5009;50.656;7.188;2022-10-15T15:08:28;21.00;99.90
9941;DHT22;5009;50.656;7.188;2022-10-15T15:13:26;20.90;99.90
9941;DHT22;5009;50.656;7.188;2022-10-15T15:15:52;20.70;99.90
9941;DHT22;5009;50.656;7.188;2022-10-15T15:18:19;20.70;99.90
9941;DHT22;5009;50.656;7.188;2022-10-15T15:20:46;20.70;99.90
9941;DHT22;5009;50.656;7.188;2022-10-15T15:23:18;20.70;99.90
9941;DHT22;5009;50.656;7.188;2022-10-15T15:25:46;20.70;99.90
9941;DHT22;5009;50.656;7.188;2022-10-15T15:28:14;20.60;99.90
9941;DHT22;5009;50.656;7.188;2022-10-15T15:30:42;20.60;99.90
9941;DHT22;5009;50.656;7.188;2022-10-15T15:33:12;20.50;99.90
9941;DHT22;5009;50.656;7.188;2022-10-15T15:38:15;20.50;99.90
9941;DHT22;5009;50.656;7.188;2022-10-15T15:40:41;20.50;99.90
9941;DHT22;5009;50.656;7.188;2022-10-15T15:43:07;20.50;99.90
9941;DHT22;5009;50.656;7.188;2022-10-15T15:45:33;20.50;99.90
9941;DHT22;5009;50.656;7.188;2022-10-15T15:47:59;20.40;99.90
9941;DHT22;5009;50.656;7.188;2022-10-15T15:50:28;20.40;99.90
9941;DHT22;5009;50.656;7.188;2022-10-15T15:52:53;20.30;99.90
9941;DHT22;5009;50.656;7.188;2022-10-15T15:55:19;20.30;99.90
9941;DHT22;5009;50.656;7.188;2022-10-15T15:57:45;20.20;99.90
9941;DHT22;5009;50.656;7.188;2022-10-15T16:00:11;20.10;99.90
9941;DHT22;5009;50.656;7.188;2022-10-15T16:02:37;20.10;99.90
9941;DHT22;5009;50.656;7.188;2022-10-15T16:05:05;20.00;99.90
9941;DHT22;5009;50.656;7.188;2022-10-15T16:07:31;20.00;99.90
9941;DHT22;5009;50.656;7.188;2022-10-15T16:09:56;19.90;99.90
9941;DHT22;5009;50.656;7.188;2022-10-15T16:12:22;19.80;99.90
9941;DHT22;5009;50.656;7.188;2022-10-15T16:14:47;19.80;99.90
9941;DHT22;5009;50.656;7.188;2022-10-15T16:17:13;19.80;99.90
9941;DHT22;5009;50.656;7.188;2022-10-15T16:19:39;19.80;99.90
9941;DHT22;5009;50.656;7.188;2022-10-15T16:22:04;19.70;99.90
9941;DHT22;5009;50.656;7.188;2022-10-15T16:24:30;19.70;99.90
9941;DHT22;5009;50.656;7.188;2022-10-15T16:26:55;19.70;99.90
9941;DHT22;5009;50.656;7.188;2022-10-15T16:29:21;19.70;99.90
9941;DHT22;5009;50.656;7.188;2022-10-15T16:31:47;19.70;99.90
9941;DHT22;5009;50.656;7.188;2022-10-15T16:34:12;19.70;99.90
9941;DHT22;5009;50.656;7.188;2022-10-15T16:36:38;19.60;99.90
9941;DHT22;5009;50.656;7.188;2022-10-15T16:39:04;19.40;99.90
9941;DHT22;5009;50.656;7.188;2022-10-15T16:41:29;19.40;99.90
9941;DHT22;5009;50.656;7.188;2022-10-15T16:43:55;19.30;99.90
9941;DHT22;5009;50.656;7.188;2022-10-15T16:46:20;19.30;99.90
9941;DHT22;5009;50.656;7.188;2022-10-15T16:48:52;19.20;99.90
9941;DHT22;5009;50.656;7.188;2022-10-15T16:51:18;19.20;99.90
9941;DHT22;5009;50.656;7.188;2022-10-15T16:53:45;19.20;99.90
9941;DHT22;5009;50.656;7.188;2022-10-15T16:56:17;19.10;99.90
9941;DHT22;5009;50.656;7.188;2022-10-15T16:58:43;19.10;99.90
9941;DHT22;5009;50.656;7.188;2022-10-15T17:01:18;19.10;99.90
9941;DHT22;5009;50.656;7.188;2022-10-15T17:03:44;19.00;99.90
9941;DHT22;5009;50.656;7.188;2022-10-15T17:06:17;19.00;99.90
9941;DHT22;5009;50.656;7.188;2022-10-15T17:08:48;18.90;99.90
9941;DHT22;5009;50.656;7.188;2022-10-15T17:11:17;18.90;99.90
9941;DHT22;5009;50.656;7.188;2022-10-15T17:13:44;18.90;99.90
9941;DHT22;5009;50.656;7.188;2022-10-15T17:16:16;18.80;99.90
9941;DHT22;5009;50.656;7.188;2022-10-15T17:18:42;18.70;99.90
9941;DHT22;5009;50.656;7.188;2022-10-15T17:21:14;18.70;99.90
9941;DHT22;5009;50.656;7.188;2022-10-15T17:23:40;18.60;99.90
9941;DHT22;5009;50.656;7.188;2022-10-15T17:26:10;18.60;99.90
9941;DHT22;5009;50.656;7.188;2022-10-15T17:28:36;18.60;99.90
9941;DHT22;5009;50.656;7.188;2022-10-15T17:31:07;18.50;99.90
9941;DHT22;5009;50.656;7.188;2022-10-15T17:33:34;18.40;99.90
9941;DHT22;5009;50.656;7.188;2022-10-15T17:36:05;18.40;99.90
9941;DHT22;5009;50.656;7.188;2022-10-15T17:38:31;18.40;99.90
9941;DHT22;5009;50.656;7.188;2022-10-15T17:40:57;18.30;99.90
9941;DHT22;5009;50.656;7.188;2022-10-15T17:43:24;18.30;99.90
9941;DHT22;5009;50.656;7.188;2022-10-15T17:45:58;18.10;99.90
9941;DHT22;5009;50.656;7.188;2022-10-15T17:48:24;18.00;99.90
9941;DHT22;5009;50.656;7.188;2022-10-15T17:50:49;18.10;99.90
9941;DHT22;5009;50.656;7.188;2022-10-15T17:53:15;18.00;99.90
9941;DHT22;5009;50.656;7.188;2022-10-15T17:55:41;18.00;99.90
9941;DHT22;5009;50.656;7.188;2022-10-15T17:58:06;18.00;99.90
9941;DHT22;5009;50.656;7.188;2022-10-15T18:00:32;17.90;99.90
9941;DHT22;5009;50.656;7.188;2022-10-15T18:02:57;17.90;99.90
9941;DHT22;5009;50.656;7.188;2022-10-15T18:05:23;17.90;99.90
9941;DHT22;5009;50.656;7.188;2022-10-15T18:07:48;17.80;99.90